North Palm Beach, FL

12:18 AM EDT on September 22, 2014 (GMT -0400)
Pompano Beach | Change Station
CLOSE
Current Station
Airport
Location: Pompano Beach,
Elevation: 20 ft
Nearby Weather Stations

Elev 20 ft 26.25 °N, 80.11 °W | Updated 25 minutes ago

Overcast
Overcast
76 °F
Feels Like 76 °F
N
5
Wind Variable Wind from WNW

Today
High -- | Low -- °F
--% Chance of Precip.
Yesterday
High -- | Low -- °F
Precip. -- in
7:08 AM 7:16 PM
Waning Crescent, 4% visible
Pressure 30.04 in
Visibility 10.0 miles
Clouds Clear
Dew Point 73 °F
Humidity 91%
Rainfall 0.87 in
Snow Depth Not available.
UV 0 out of 12
Pollen 4.30 out of 12
Ozone Good
PM2.5 Good
Flu Activity Not available.
METAR KPMP 220353Z AUTO 30004KT 10SM CLR 24/23 A3003 RMK AO2 SLP170 T02440228

More Conditions Fewer Conditions

Pressure 30.04 in
Visibility 10.0 miles
Clouds Clear
Dew Point 73 °F
Humidity 91%
Rainfall 0.87 in
Snow Depth Not available.
UV 0 out of 12
Pollen 4.30 out of 12
Ozone Good
PM2.5 Good
Flu Activity Not available.
METAR KPMP 220353Z AUTO 30004KT 10SM CLR 24/23 A3003 RMK AO2 SLP170 T02440228

More Conditions Fewer Conditions

10-Day Weather Forecast

Almanac

Astronomy

Sep. 22, 2014 Rise Set
Actual Time 7:08 AM EDT 7:16 PM EDT
Civil Twilight 6:45 AM EDT 7:39 PM EDT
Nautical Twilight 6:18 AM EDT 8:06 PM EDT
Astronomical Twilight 5:51 AM EDT 8:33 PM EDT
Moon 5:42 AM EDT 6:19 PM EDT
Length of Visible Light 12h 54m
Length of Day
12h 07m
Tomorrow will be 1m 35s shorter.
Waning Crescent, 4% of the Moon is Illuminated
Today
Waning Crescent
Sep 24
New
Oct 1
First Quarter
Oct 8
Full
Oct 15
Last Quarter

Yesterday's Extremes

State Highs State Lows

Community

WunderPhotos

Upload Photos

1,755,383 photos uploaded!

Nearby

Air Quality

  Air Quality AQ Index Pollutant
Yesterday Good
PM2.5
Yesterday Good
OZONE
Current Good
PM2.5
Current Good
OZONE
Sunday Good
OZONE
Sunday Good
PM2.5
Monday Good
OZONE
Monday Good
PM2.5

Snow Depth

Station Depth Elevation
No new snow has been reported.

Earthquake Activity

City Distance Mag. Time & Date
No recent earthquake activity has been reported nearby.
Minimum magnitude displayed is 2.5.

Coastal Water Temperatures

Place Temperature
Lake Worth, FL 84.9 °F
Virginia Key, FL 84.9 °F

Nearby Weather Stations